sensor_id;sensor_type;location;lat;lon;timestamp;pressure;altitude;pressure_sealevel;temperature;humidity
19736;BME280;32064;49.310;8.646;2022-10-18T00:00:58;101371.63;;;19.60;87.21
19736;BME280;32064;49.310;8.646;2022-10-18T00:03:24;101368.41;;;19.57;87.65
19736;BME280;32064;49.310;8.646;2022-10-18T00:05:50;101366.69;;;19.56;87.66
19736;BME280;32064;49.310;8.646;2022-10-18T00:08:17;101362.91;;;19.58;87.30
19736;BME280;32064;49.310;8.646;2022-10-18T00:10:43;101365.44;;;19.60;88.49
19736;BME280;32064;49.310;8.646;2022-10-18T00:13:08;101365.16;;;19.63;87.99
19736;BME280;32064;49.310;8.646;2022-10-18T00:15:34;101366.44;;;19.68;87.48
19736;BME280;32064;49.310;8.646;2022-10-18T00:17:59;101368.69;;;19.73;87.69
19736;BME280;32064;49.310;8.646;2022-10-18T00:20:25;101368.41;;;19.76;86.96
19736;BME280;32064;49.310;8.646;2022-10-18T00:22:50;101372.88;;;19.76;87.33
19736;BME280;32064;49.310;8.646;2022-10-18T00:25:16;101367.81;;;19.72;87.44
19736;BME280;32064;49.310;8.646;2022-10-18T00:27:41;101366.69;;;19.75;87.11
19736;BME280;32064;49.310;8.646;2022-10-18T00:30:07;101363.91;;;19.67;87.57
19736;BME280;32064;49.310;8.646;2022-10-18T00:32:37;101371.78;;;19.68;88.11
19736;BME280;32064;49.310;8.646;2022-10-18T00:35:04;101364.03;;;19.75;87.27
19736;BME280;32064;49.310;8.646;2022-10-18T00:37:30;101362.34;;;19.74;87.60
19736;BME280;32064;49.310;8.646;2022-10-18T00:39:55;101366.81;;;19.64;88.83
19736;BME280;32064;49.310;8.646;2022-10-18T00:42:24;101368.41;;;19.76;87.33
19736;BME280;32064;49.310;8.646;2022-10-18T00:47:17;101374.13;;;19.81;87.23
19736;BME280;32064;49.310;8.646;2022-10-18T00:49:47;101370.63;;;19.81;87.13
19736;BME280;32064;49.310;8.646;2022-10-18T00:52:23;101370.63;;;19.81;87.24
19736;BME280;32064;49.310;8.646;2022-10-18T00:54:51;101370.34;;;19.84;86.81
19736;BME280;32064;49.310;8.646;2022-10-18T00:57:17;101373.00;;;19.84;86.88
19736;BME280;32064;49.310;8.646;2022-10-18T00:59:42;101373.28;;;19.90;87.17
19736;BME280;32064;49.310;8.646;2022-10-18T01:02:09;101380.72;;;19.87;86.87
19736;BME280;32064;49.310;8.646;2022-10-18T01:04:34;101373.97;;;19.92;87.21
19736;BME280;32064;49.310;8.646;2022-10-18T01:12:24;101373.59;;;19.87;86.72
19736;BME280;32064;49.310;8.646;2022-10-18T01:17:35;101367.13;;;19.80;87.48
19736;BME280;32064;49.310;8.646;2022-10-18T01:20:22;101369.66;;;19.82;86.73
19736;BME280;32064;49.310;8.646;2022-10-18T01:23:06;101369.50;;;19.83;86.83
19736;BME280;32064;49.310;8.646;2022-10-18T01:25:46;101365.00;;;19.84;87.17
19736;BME280;32064;49.310;8.646;2022-10-18T01:28:48;101359.41;;;19.77;87.56
19736;BME280;32064;49.310;8.646;2022-10-18T01:31:34;101368.66;;;19.83;86.95
19736;BME280;32064;49.310;8.646;2022-10-18T01:34:05;101366.53;;;19.86;86.54
19736;BME280;32064;49.310;8.646;2022-10-18T01:36:35;101378.63;;;19.90;86.41
19736;BME280;32064;49.310;8.646;2022-10-18T01:39:06;101376.25;;;19.87;86.74
19736;BME280;32064;49.310;8.646;2022-10-18T01:41:34;101367.09;;;19.90;86.71
19736;BME280;32064;49.310;8.646;2022-10-18T01:44:03;101364.88;;;19.85;86.55
19736;BME280;32064;49.310;8.646;2022-10-18T01:46:32;101365.56;;;19.87;87.32
19736;BME280;32064;49.310;8.646;2022-10-18T01:48:58;101363.56;;;19.89;86.30
19736;BME280;32064;49.310;8.646;2022-10-18T01:51:29;101361.06;;;19.88;86.27
19736;BME280;32064;49.310;8.646;2022-10-18T01:53:55;101357.81;;;19.84;86.53
19736;BME280;32064;49.310;8.646;2022-10-18T02:04:55;101354.22;;;19.66;87.40
19736;BME280;32064;49.310;8.646;2022-10-18T02:07:46;101345.91;;;19.69;86.71
19736;BME280;32064;49.310;8.646;2022-10-18T02:10:44;101340.84;;;19.76;86.26
19736;BME280;32064;49.310;8.646;2022-10-18T02:13:15;101338.56;;;19.81;85.91
19736;BME280;32064;49.310;8.646;2022-10-18T02:15:45;101340.97;;;19.84;86.03
19736;BME280;32064;49.310;8.646;2022-10-18T02:18:15;101338.00;;;19.87;86.05
19736;BME280;32064;49.310;8.646;2022-10-18T02:20:44;101340.97;;;19.84;86.25
19736;BME280;32064;49.310;8.646;2022-10-18T02:23:10;101332.41;;;19.80;86.19
19736;BME280;32064;49.310;8.646;2022-10-18T02:25:36;101325.50;;;19.78;86.47
19736;BME280;32064;49.310;8.646;2022-10-18T02:28:03;101323.69;;;19.78;86.08
19736;BME280;32064;49.310;8.646;2022-10-18T02:31:18;101316.41;;;19.70;86.01
19736;BME280;32064;49.310;8.646;2022-10-18T02:33:27;101321.34;;;19.65;86.73
19736;BME280;32064;49.310;8.646;2022-10-18T02:35:59;101319.50;;;19.66;86.12
19736;BME280;32064;49.310;8.646;2022-10-18T02:38:28;101324.00;;;19.65;86.45
19736;BME280;32064;49.310;8.646;2022-10-18T02:40:55;101329.91;;;19.69;85.93
19736;BME280;32064;49.310;8.646;2022-10-18T02:43:23;101340.03;;;19.65;85.72
19736;BME280;32064;49.310;8.646;2022-10-18T02:45:48;101331.16;;;19.65;86.09
19736;BME280;32064;49.310;8.646;2022-10-18T02:48:14;101336.50;;;19.65;86.29
19736;BME280;32064;49.310;8.646;2022-10-18T02:50:39;101349.25;;;19.61;85.61
19736;BME280;32064;49.310;8.646;2022-10-18T02:53:05;101340.13;;;19.64;85.94
19736;BME280;32064;49.310;8.646;2022-10-18T02:55:30;101333.81;;;19.65;85.72
19736;BME280;32064;49.310;8.646;2022-10-18T02:57:55;101340.56;;;19.69;86.38
19736;BME280;32064;49.310;8.646;2022-10-18T03:00:21;101329.44;;;19.64;85.96
19736;BME280;32064;49.310;8.646;2022-10-18T03:02:46;101332.28;;;19.62;85.88
19736;BME280;32064;49.310;8.646;2022-10-18T03:05:13;101340.41;;;19.61;86.42
19736;BME280;32064;49.310;8.646;2022-10-18T03:07:38;101334.09;;;19.62;85.39
19736;BME280;32064;49.310;8.646;2022-10-18T03:10:04;101347.47;;;19.62;85.73
19736;BME280;32064;49.310;8.646;2022-10-18T03:12:30;101342.38;;;19.59;85.44
19736;BME280;32064;49.310;8.646;2022-10-18T03:14:55;101343.78;;;19.63;85.62
19736;BME280;32064;49.310;8.646;2022-10-18T03:17:20;101335.22;;;19.59;85.68
19736;BME280;32064;49.310;8.646;2022-10-18T03:19:46;101341.25;;;19.61;85.84
19736;BME280;32064;49.310;8.646;2022-10-18T03:22:11;101333.41;;;19.60;85.39
19736;BME280;32064;49.310;8.646;2022-10-18T03:24:37;101330.56;;;19.61;85.41
19736;BME280;32064;49.310;8.646;2022-10-18T03:27:02;101327.78;;;19.53;85.98
19736;BME280;32064;49.310;8.646;2022-10-18T03:29:28;101329.31;;;19.56;85.60
19736;BME280;32064;49.310;8.646;2022-10-18T03:31:53;101331.16;;;19.55;85.72
19736;BME280;32064;49.310;8.646;2022-10-18T03:34:18;101332.28;;;19.52;85.53
19736;BME280;32064;49.310;8.646;2022-10-18T03:36:44;101328.63;;;19.54;85.80
19736;BME280;32064;49.310;8.646;2022-10-18T03:39:10;101334.94;;;19.52;86.18
19736;BME280;32064;49.310;8.646;2022-10-18T03:41:36;101334.66;;;19.56;85.28
19736;BME280;32064;49.310;8.646;2022-10-18T03:44:02;101347.03;;;19.57;85.84
19736;BME280;32064;49.310;8.646;2022-10-18T03:46:27;101348.88;;;19.56;85.52
19736;BME280;32064;49.310;8.646;2022-10-18T03:48:52;101346.19;;;19.56;85.58
19736;BME280;32064;49.310;8.646;2022-10-18T03:51:18;101355.47;;;19.52;86.16
19736;BME280;32064;49.310;8.646;2022-10-18T03:53:43;101350.97;;;19.52;85.65
19736;BME280;32064;49.310;8.646;2022-10-18T03:56:08;101360.81;;;19.52;86.06
19736;BME280;32064;49.310;8.646;2022-10-18T03:58:34;101360.81;;;19.52;85.34
19736;BME280;32064;49.310;8.646;2022-10-18T04:00:59;101363.22;;;19.45;86.60
19736;BME280;32064;49.310;8.646;2022-10-18T04:03:25;101357.72;;;19.47;86.53
19736;BME280;32064;49.310;8.646;2022-10-18T04:05:50;101354.19;;;19.46;86.10
19736;BME280;32064;49.310;8.646;2022-10-18T04:08:16;101363.34;;;19.44;86.30
19736;BME280;32064;49.310;8.646;2022-10-18T04:10:42;101366.72;;;19.46;86.14
19736;BME280;32064;49.310;8.646;2022-10-18T04:13:08;101371.06;;;19.47;85.91
19736;BME280;32064;49.310;8.646;2022-10-18T04:15:33;101364.16;;;19.44;86.21
19736;BME280;32064;49.310;8.646;2022-10-18T04:17:59;101366.16;;;19.42;86.43
19736;BME280;32064;49.310;8.646;2022-10-18T04:20:25;101369.38;;;19.46;85.95
19736;BME280;32064;49.310;8.646;2022-10-18T04:22:51;101360.94;;;19.41;86.20
19736;BME280;32064;49.310;8.646;2022-10-18T04:25:19;101356.59;;;19.40;86.33
19736;BME280;32064;49.310;8.646;2022-10-18T04:27:45;101358.44;;;19.39;86.33
19736;BME280;32064;49.310;8.646;2022-10-18T04:30:10;101360.53;;;19.45;85.63
19736;BME280;32064;49.310;8.646;2022-10-18T04:32:35;101363.22;;;19.45;86.14
19736;BME280;32064;49.310;8.646;2022-10-18T04:35:02;101374.31;;;19.50;86.47
19736;BME280;32064;49.310;8.646;2022-10-18T04:37:28;101373.44;;;19.50;85.97
19736;BME280;32064;49.310;8.646;2022-10-18T04:39:53;101371.63;;;19.50;86.07
19736;BME280;32064;49.310;8.646;2022-10-18T04:42:19;101373.72;;;19.57;85.42
19736;BME280;32064;49.310;8.646;2022-10-18T04:44:45;101373.72;;;19.57;86.53
19736;BME280;32064;49.310;8.646;2022-10-18T04:47:10;101373.88;;;19.55;85.06
19736;BME280;32064;49.310;8.646;2022-10-18T04:49:35;101385.25;;;19.57;85.27
19736;BME280;32064;49.310;8.646;2022-10-18T04:52:01;101378.38;;;19.55;84.99
19736;BME280;32064;49.310;8.646;2022-10-18T04:54:26;101379.19;;;19.55;85.14
19736;BME280;32064;49.310;8.646;2022-10-18T04:56:52;101375.97;;;19.51;85.02
19736;BME280;32064;49.310;8.646;2022-10-18T04:59:18;101374.97;;;19.52;85.52
19736;BME280;32064;49.310;8.646;2022-10-18T05:01:43;101383.72;;;19.55;85.52
19736;BME280;32064;49.310;8.646;2022-10-18T05:04:08;101378.50;;;19.53;85.75
19736;BME280;32064;49.310;8.646;2022-10-18T05:06:34;101386.25;;;19.56;85.48
19736;BME280;32064;49.310;8.646;2022-10-18T05:08:59;101389.31;;;19.51;85.61
19736;BME280;32064;49.310;8.646;2022-10-18T05:11:25;101394.94;;;19.48;85.85
19736;BME280;32064;49.310;8.646;2022-10-18T05:13:50;101392.41;;;19.47;85.88
19736;BME280;32064;49.310;8.646;2022-10-18T05:16:16;101387.22;;;19.45;86.02
19736;BME280;32064;49.310;8.646;2022-10-18T05:18:42;101396.91;;;19.46;85.98
19736;BME280;32064;49.310;8.646;2022-10-18T05:21:08;101394.25;;;19.46;86.33
19736;BME280;32064;49.310;8.646;2022-10-18T05:23:33;101394.25;;;19.46;86.08
19736;BME280;32064;49.310;8.646;2022-10-18T05:26:03;101396.78;;;19.48;85.98
19736;BME280;32064;49.310;8.646;2022-10-18T05:28:29;101389.75;;;19.47;86.49
19736;BME280;32064;49.310;8.646;2022-10-18T05:30:55;101393.25;;;19.47;86.56
19736;BME280;32064;49.310;8.646;2022-10-18T05:33:24;101388.91;;;19.46;86.17
19736;BME280;32064;49.310;8.646;2022-10-18T05:35:49;101392.56;;;19.45;86.21
19736;BME280;32064;49.310;8.646;2022-10-18T05:38:15;101387.34;;;19.44;86.20
19736;BME280;32064;49.310;8.646;2022-10-18T05:40:40;101389.19;;;19.43;86.65
19736;BME280;32064;49.310;8.646;2022-10-18T05:43:05;101384.13;;;19.40;87.24
19736;BME280;32064;49.310;8.646;2022-10-18T05:45:31;101397.47;;;19.40;87.14
19736;BME280;32064;49.310;8.646;2022-10-18T05:47:56;101398.03;;;19.44;87.18
19736;BME280;32064;49.310;8.646;2022-10-18T05:50:21;101398.03;;;19.44;85.93
19736;BME280;32064;49.310;8.646;2022-10-18T05:52:47;101396.19;;;19.44;87.01
19736;BME280;32064;49.310;8.646;2022-10-18T05:55:12;101395.06;;;19.47;86.80
19736;BME280;32064;49.310;8.646;2022-10-18T05:57:38;101397.47;;;19.50;86.35
19736;BME280;32064;49.310;8.646;2022-10-18T06:00:03;101389.63;;;19.48;86.25
19736;BME280;32064;49.310;8.646;2022-10-18T06:02:29;101394.50;;;19.53;86.11
19736;BME280;32064;49.310;8.646;2022-10-18T06:04:54;101395.38;;;19.54;86.22
19736;BME280;32064;49.310;8.646;2022-10-18T06:07:19;101385.66;;;19.52;86.18
19736;BME280;32064;49.310;8.646;2022-10-18T06:09:45;101389.03;;;19.55;86.75
19736;BME280;32064;49.310;8.646;2022-10-18T06:12:10;101392.25;;;19.58;85.69
19736;BME280;32064;49.310;8.646;2022-10-18T06:14:36;101382.41;;;19.59;86.22
19736;BME280;32064;49.310;8.646;2022-10-18T06:17:01;101386.94;;;19.58;86.33
19736;BME280;32064;49.310;8.646;2022-10-18T06:19:27;101385.81;;;19.61;86.17
19736;BME280;32064;49.310;8.646;2022-10-18T06:21:52;101382.28;;;19.60;85.84
19736;BME280;32064;49.310;8.646;2022-10-18T06:24:17;101383.13;;;19.61;85.72
19736;BME280;32064;49.310;8.646;2022-10-18T06:26:43;101394.81;;;19.60;85.60
19736;BME280;32064;49.310;8.646;2022-10-18T06:29:09;101392.97;;;19.60;85.43
19736;BME280;32064;49.310;8.646;2022-10-18T06:31:34;101388.63;;;19.59;86.10
19736;BME280;32064;49.310;8.646;2022-10-18T06:34:00;101391.00;;;19.62;85.96
19736;BME280;32064;49.310;8.646;2022-10-18T06:36:26;101397.19;;;19.63;85.76
19736;BME280;32064;49.310;8.646;2022-10-18T06:38:52;101406.78;;;19.65;86.16
19736;BME280;32064;49.310;8.646;2022-10-18T06:41:18;101407.03;;;19.62;86.19
19736;BME280;32064;49.310;8.646;2022-10-18T06:43:52;101413.06;;;19.64;85.52
19736;BME280;32064;49.310;8.646;2022-10-18T06:46:20;101414.88;;;19.64;86.18
19736;BME280;32064;49.310;8.646;2022-10-18T06:48:46;101411.25;;;19.65;86.03
19736;BME280;32064;49.310;8.646;2022-10-18T06:51:11;101405.78;;;19.66;86.72
19736;BME280;32064;49.310;8.646;2022-10-18T06:53:38;101408.44;;;19.66;87.34
19736;BME280;32064;49.310;8.646;2022-10-18T06:56:06;101421.53;;;19.69;87.16
19736;BME280;32064;49.310;8.646;2022-10-18T06:58:33;101425.03;;;19.70;87.04
19736;BME280;32064;49.310;8.646;2022-10-18T07:01:08;101420.56;;;19.70;86.57
19736;BME280;32064;49.310;8.646;2022-10-18T07:03:34;101419.28;;;19.74;87.11
19736;BME280;32064;49.310;8.646;2022-10-18T07:06:00;101428.97;;;19.76;86.73
19736;BME280;32064;49.310;8.646;2022-10-18T07:08:27;101432.06;;;19.81;86.74
19736;BME280;32064;49.310;8.646;2022-10-18T07:10:53;101430.94;;;19.83;86.50
19736;BME280;32064;49.310;8.646;2022-10-18T07:13:19;101428.53;;;19.90;85.94
19736;BME280;32064;49.310;8.646;2022-10-18T07:15:44;101432.44;;;19.95;85.85
19736;BME280;32064;49.310;8.646;2022-10-18T07:18:10;101439.47;;;20.06;85.71
19736;BME280;32064;49.310;8.646;2022-10-18T07:20:35;101449.88;;;20.09;84.79
19736;BME280;32064;49.310;8.646;2022-10-18T07:23:01;101448.19;;;20.08;84.92
19736;BME280;32064;49.310;8.646;2022-10-18T07:25:26;101462.69;;;20.06;85.57
19736;BME280;32064;49.310;8.646;2022-10-18T07:27:51;101474.19;;;20.06;85.97
19736;BME280;32064;49.310;8.646;2022-10-18T07:30:17;101474.91;;;20.08;85.94
19736;BME280;32064;49.310;8.646;2022-10-18T07:32:42;101462.53;;;20.07;84.99
19736;BME280;32064;49.310;8.646;2022-10-18T07:35:08;101465.63;;;20.03;85.72
19736;BME280;32064;49.310;8.646;2022-10-18T07:37:33;101459.28;;;20.04;85.78
19736;BME280;32064;49.310;8.646;2022-10-18T07:39:59;101468.59;;;20.00;85.62
19736;BME280;32064;49.310;8.646;2022-10-18T07:42:24;101470.56;;;19.98;85.98
19736;BME280;32064;49.310;8.646;2022-10-18T07:44:49;101474.50;;;19.93;85.85
19736;BME280;32064;49.310;8.646;2022-10-18T07:47:15;101472.53;;;19.95;86.56
19736;BME280;32064;49.310;8.646;2022-10-18T07:49:40;101476.06;;;19.96;86.39
19736;BME280;32064;49.310;8.646;2022-10-18T07:52:06;101482.09;;;19.98;86.61
19736;BME280;32064;49.310;8.646;2022-10-18T07:54:31;101487.28;;;20.00;86.62
19736;BME280;32064;49.310;8.646;2022-10-18T07:56:56;101489.97;;;20.00;87.15
19736;BME280;32064;49.310;8.646;2022-10-18T07:59:22;101503.75;;;20.05;86.98
19736;BME280;32064;49.310;8.646;2022-10-18T08:01:47;101502.03;;;20.04;87.70
19736;BME280;32064;49.310;8.646;2022-10-18T08:04:13;101499.66;;;20.01;87.84
19736;BME280;32064;49.310;8.646;2022-10-18T08:06:38;101488.84;;;20.02;87.72
19736;BME280;32064;49.310;8.646;2022-10-18T08:09:03;101500.38;;;20.03;87.88
19736;BME280;32064;49.310;8.646;2022-10-18T08:11:29;101498.81;;;20.00;88.29
19736;BME280;32064;49.310;8.646;2022-10-18T08:13:55;101501.50;;;20.00;88.67
19736;BME280;32064;49.310;8.646;2022-10-18T08:16:25;101490.97;;;19.99;87.88
19736;BME280;32064;49.310;8.646;2022-10-18T08:18:51;101495.31;;;20.00;88.45
19736;BME280;32064;49.310;8.646;2022-10-18T08:21:18;101491.50;;;20.02;88.26
19736;BME280;32064;49.310;8.646;2022-10-18T08:23:43;101491.38;;;20.13;88.54
19736;BME280;32064;49.310;8.646;2022-10-18T08:26:12;101498.78;;;20.29;88.54
19736;BME280;32064;49.310;8.646;2022-10-18T08:28:38;101500.72;;;20.37;88.16
19736;BME280;32064;49.310;8.646;2022-10-18T08:31:06;101497.19;;;20.46;88.16
19736;BME280;32064;49.310;8.646;2022-10-18T08:33:32;101500.13;;;20.62;88.59
19736;BME280;32064;49.310;8.646;2022-10-18T08:36:00;101499.00;;;20.65;88.64
19736;BME280;32064;49.310;8.646;2022-10-18T08:38:29;101503.81;;;20.61;88.46
19736;BME280;32064;49.310;8.646;2022-10-18T08:40:59;101500.28;;;20.61;88.80
19736;BME280;32064;49.310;8.646;2022-10-18T08:43:37;101512.69;;;20.52;88.79
19736;BME280;32064;49.310;8.646;2022-10-18T08:46:07;101511.81;;;20.52;89.88
19736;BME280;32064;49.310;8.646;2022-10-18T08:48:42;101518.28;;;20.49;89.31
19736;BME280;32064;49.310;8.646;2022-10-18T08:51:31;101512.56;;;20.44;89.53
19736;BME280;32064;49.310;8.646;2022-10-18T08:54:13;101513.94;;;20.48;89.89
19736;BME280;32064;49.310;8.646;2022-10-18T08:56:42;101514.22;;;20.55;89.27
19736;BME280;32064;49.310;8.646;2022-10-18T08:59:10;101512.13;;;20.58;89.46
19736;BME280;32064;49.310;8.646;2022-10-18T09:11:54;101511.38;;;21.03;89.19
19736;BME280;32064;49.310;8.646;2022-10-18T09:20:02;101518.31;;;21.87;86.99
19736;BME280;32064;49.310;8.646;2022-10-18T09:25:35;101526.19;;;22.25;86.30
19736;BME280;32064;49.310;8.646;2022-10-18T09:34:11;101530.41;;;22.27;85.55
19736;BME280;32064;49.310;8.646;2022-10-18T09:36:37;101529.59;;;22.87;84.79
19736;BME280;32064;49.310;8.646;2022-10-18T09:39:12;101528.50;;;23.40;83.49
19736;BME280;32064;49.310;8.646;2022-10-18T09:44:29;101522.41;;;24.05;80.96
19736;BME280;32064;49.310;8.646;2022-10-18T09:47:20;101514.19;;;24.15;79.26
19736;BME280;32064;49.310;8.646;2022-10-18T09:49:55;101519.56;;;24.95;76.64
19736;BME280;32064;49.310;8.646;2022-10-18T09:52:30;101528.94;;;25.47;75.42
19736;BME280;32064;49.310;8.646;2022-10-18T09:55:02;101524.97;;;26.27;73.44
19736;BME280;32064;49.310;8.646;2022-10-18T09:57:47;101531.72;;;26.46;71.42
19736;BME280;32064;49.310;8.646;2022-10-18T10:00:17;101536.16;;;27.21;70.10
19736;BME280;32064;49.310;8.646;2022-10-18T10:02:45;101540.38;;;28.52;66.65
19736;BME280;32064;49.310;8.646;2022-10-18T10:05:14;101536.06;;;27.87;66.59
19736;BME280;32064;49.310;8.646;2022-10-18T10:07:44;101536.00;;;28.86;64.65
19736;BME280;32064;49.310;8.646;2022-10-18T10:10:22;101540.75;;;30.53;59.79
19736;BME280;32064;49.310;8.646;2022-10-18T10:13:46;101540.31;;;29.70;57.30
19736;BME280;32064;49.310;8.646;2022-10-18T10:15:55;101549.97;;;29.24;61.19
19736;BME280;32064;49.310;8.646;2022-10-18T10:18:40;101549.09;;;30.05;58.62
19736;BME280;32064;49.310;8.646;2022-10-18T10:21:12;101551.84;;;30.18;57.33
19736;BME280;32064;49.310;8.646;2022-10-18T10:24:05;101552.88;;;29.29;59.11
19736;BME280;32064;49.310;8.646;2022-10-18T10:26:32;101551.72;;;28.41;60.71
19736;BME280;32064;49.310;8.646;2022-10-18T10:28:58;101558.16;;;27.54;62.32
19736;BME280;32064;49.310;8.646;2022-10-18T10:34:18;101554.66;;;26.27;64.14
19736;BME280;32064;49.310;8.646;2022-10-18T10:36:49;101551.31;;;25.79;65.97
19736;BME280;32064;49.310;8.646;2022-10-18T10:39:17;101551.47;;;25.54;66.65
19736;BME280;32064;49.310;8.646;2022-10-18T10:41:53;101552.09;;;25.33;67.03
19736;BME280;32064;49.310;8.646;2022-10-18T10:44:25;101549.69;;;25.69;67.30
19736;BME280;32064;49.310;8.646;2022-10-18T10:46:52;101545.72;;;25.88;67.19
19736;BME280;32064;49.310;8.646;2022-10-18T10:49:21;101555.28;;;25.68;67.28
19736;BME280;32064;49.310;8.646;2022-10-18T10:51:57;101551.81;;;25.28;67.96
19736;BME280;32064;49.310;8.646;2022-10-18T10:54:24;101548.47;;;25.18;68.57
19736;BME280;32064;49.310;8.646;2022-10-18T10:57:16;101547.25;;;25.28;68.15
19736;BME280;32064;49.310;8.646;2022-10-18T10:59:47;101554.78;;;27.01;66.00
19736;BME280;32064;49.310;8.646;2022-10-18T11:04:42;101545.19;;;28.92;60.98
19736;BME280;32064;49.310;8.646;2022-10-18T11:09:56;101545.03;;;29.00;59.06
19736;BME280;32064;49.310;8.646;2022-10-18T11:12:32;101547.22;;;28.83;59.34
19736;BME280;32064;49.310;8.646;2022-10-18T11:15:05;101541.47;;;28.64;58.79
19736;BME280;32064;49.310;8.646;2022-10-18T11:18:00;101550.44;;;28.37;58.05
19736;BME280;32064;49.310;8.646;2022-10-18T11:20:31;101546.22;;;29.32;57.63
19736;BME280;32064;49.310;8.646;2022-10-18T11:23:04;101544.75;;;30.44;55.00
19736;BME280;32064;49.310;8.646;2022-10-18T11:31:43;101537.06;;;31.58;53.12
19736;BME280;32064;49.310;8.646;2022-10-18T11:34:42;101541.41;;;31.90;52.03
19736;BME280;32064;49.310;8.646;2022-10-18T11:53:37;101521.00;;;32.31;48.73
19736;BME280;32064;49.310;8.646;2022-10-18T12:04:16;101522.13;;;30.63;51.43
19736;BME280;32064;49.310;8.646;2022-10-18T12:06:46;101511.50;;;30.09;51.21
19736;BME280;32064;49.310;8.646;2022-10-18T12:09:30;101508.72;;;29.42;51.44
19736;BME280;32064;49.310;8.646;2022-10-18T12:12:17;101501.16;;;28.76;53.07
19736;BME280;32064;49.310;8.646;2022-10-18T12:14:47;101497.91;;;28.31;53.55
19736;BME280;32064;49.310;8.646;2022-10-18T12:17:20;101500.94;;;27.93;55.53
19736;BME280;32064;49.310;8.646;2022-10-18T12:19:48;101495.69;;;27.70;55.81
19736;BME280;32064;49.310;8.646;2022-10-18T12:22:23;101496.41;;;27.36;55.90
19736;BME280;32064;49.310;8.646;2022-10-18T12:24:50;101493.28;;;27.18;56.39
19736;BME280;32064;49.310;8.646;2022-10-18T12:27:15;101491.91;;;26.92;57.87
19736;BME280;32064;49.310;8.646;2022-10-18T12:30:01;101498.06;;;26.71;59.27
19736;BME280;32064;49.310;8.646;2022-10-18T12:32:32;101503.94;;;26.60;58.61
19736;BME280;32064;49.310;8.646;2022-10-18T12:35:14;101508.16;;;26.39;59.52
19736;BME280;32064;49.310;8.646;2022-10-18T12:38:13;101493.56;;;26.34;60.22
19736;BME280;32064;49.310;8.646;2022-10-18T12:40:43;101494.75;;;26.31;60.06
19736;BME280;32064;49.310;8.646;2022-10-18T12:43:24;101495.88;;;26.22;61.60
19736;BME280;32064;49.310;8.646;2022-10-18T12:45:53;101497.25;;;26.18;60.45
19736;BME280;32064;49.310;8.646;2022-10-18T12:48:30;101499.44;;;26.00;61.09
19736;BME280;32064;49.310;8.646;2022-10-18T12:51:04;101497.38;;;25.79;61.34
19736;BME280;32064;49.310;8.646;2022-10-18T12:53:30;101500.63;;;25.74;61.82
19736;BME280;32064;49.310;8.646;2022-10-18T13:15:05;101487.19;;;25.12;64.13
19736;BME280;32064;49.310;8.646;2022-10-18T13:20:36;101490.06;;;25.02;63.55
19736;BME280;32064;49.310;8.646;2022-10-18T13:25:56;101485.34;;;24.64;64.24
19736;BME280;32064;49.310;8.646;2022-10-18T13:33:54;101487.59;;;24.45;64.61
19736;BME280;32064;49.310;8.646;2022-10-18T13:36:22;101491.94;;;24.46;64.83
19736;BME280;32064;49.310;8.646;2022-10-18T13:41:20;101483.34;;;24.42;65.16
19736;BME280;32064;49.310;8.646;2022-10-18T13:48:53;101483.56;;;24.24;66.48
19736;BME280;32064;49.310;8.646;2022-10-18T13:51:46;101484.06;;;24.19;66.29
19736;BME280;32064;49.310;8.646;2022-10-18T13:57:15;101479.69;;;24.35;67.05
19736;BME280;32064;49.310;8.646;2022-10-18T14:07:41;101489.59;;;24.34;68.57
19736;BME280;32064;49.310;8.646;2022-10-18T14:10:19;101493.78;;;24.29;68.49
19736;BME280;32064;49.310;8.646;2022-10-18T14:12:49;101496.00;;;24.25;67.45
19736;BME280;32064;49.310;8.646;2022-10-18T14:15:34;101495.16;;;24.16;69.18
19736;BME280;32064;49.310;8.646;2022-10-18T14:18:11;101495.84;;;24.02;69.40
19736;BME280;32064;49.310;8.646;2022-10-18T14:20:40;101502.06;;;23.94;69.99
19736;BME280;32064;49.310;8.646;2022-10-18T14:23:15;101499.22;;;23.88;69.92
19736;BME280;32064;49.310;8.646;2022-10-18T14:25:42;101496.53;;;23.88;70.10
19736;BME280;32064;49.310;8.646;2022-10-18T14:28:33;101499.88;;;23.73;71.33
19736;BME280;32064;49.310;8.646;2022-10-18T14:31:04;101490.66;;;23.76;70.93
19736;BME280;32064;49.310;8.646;2022-10-18T14:33:39;101498.88;;;23.74;70.95
19736;BME280;32064;49.310;8.646;2022-10-18T14:38:44;101498.97;;;23.48;71.89
19736;BME280;32064;49.310;8.646;2022-10-18T14:43:42;101501.47;;;23.42;72.62
19736;BME280;32064;49.310;8.646;2022-10-18T14:46:22;101509.38;;;23.43;72.43
19736;BME280;32064;49.310;8.646;2022-10-18T14:48:58;101501.47;;;23.42;73.70
19736;BME280;32064;49.310;8.646;2022-10-18T14:51:26;101500.81;;;23.48;72.91
19736;BME280;32064;49.310;8.646;2022-10-18T14:53:53;101508.03;;;23.47;73.23
19736;BME280;32064;49.310;8.646;2022-10-18T14:56:25;101508.88;;;23.48;73.27
19736;BME280;32064;49.310;8.646;2022-10-18T14:58:52;101509.72;;;23.48;73.32
19736;BME280;32064;49.310;8.646;2022-10-18T15:01:20;101503.84;;;23.45;74.40
19736;BME280;32064;49.310;8.646;2022-10-18T15:03:47;101511.72;;;23.46;73.47
19736;BME280;32064;49.310;8.646;2022-10-18T15:06:18;101502.13;;;23.44;74.15
19736;BME280;32064;49.310;8.646;2022-10-18T15:08:45;101506.69;;;23.43;74.39
19736;BME280;32064;49.310;8.646;2022-10-18T15:11:13;101506.03;;;23.41;75.31
19736;BME280;32064;49.310;8.646;2022-10-18T15:13:53;101518.75;;;23.31;74.72
19736;BME280;32064;49.310;8.646;2022-10-18T15:16:22;101512.03;;;23.27;74.74
19736;BME280;32064;49.310;8.646;2022-10-18T15:21:24;101507.47;;;23.19;75.39
19736;BME280;32064;49.310;8.646;2022-10-18T15:23:50;101509.78;;;23.14;75.66